AVA225 SAWC-SAVC
Flight info
| Callsign | AVA225 |
|---|---|
| Flight time | 1h 37m |
| Altitude | 35000 |
| Route | ASOPA UW48 BOKUK DCT GILVO GILVO1U |
| Aircraft | A320/M-SDE3FGHIRWY/LB1 |
Departure
| Time | 2026-05-09 20:22 |
|---|---|
| Airport | El Calafate - Commander Armando Tola International Airport (SAWC) |
Arrival
| Time | 2026-05-09 21:59 |
|---|---|
| Airport | General Enrique Mosconi International Airport (SAVC) |
| Time | Latitude | Longitude | Altitude | Speed | Heading |
|---|---|---|---|---|---|
| 2026-05-09 19:50 | -50.28328 | -72.05319 | 641 ft | 0 kts | 232° |
| 2026-05-09 20:12 | -50.28325 | -72.05314 | 641 ft | 3 kts | 230° |
| 2026-05-09 20:12 | -50.28310 | -72.05290 | 641 ft | 3 kts | 225° |
| 2026-05-09 20:12 | -50.28289 | -72.05267 | 641 ft | 4 kts | 192° |
| 2026-05-09 20:12 | -50.28263 | -72.05265 | 641 ft | 4 kts | 184° |
| 2026-05-09 20:13 | -50.28250 | -72.05263 | 641 ft | 1 kts | 264° |
| 2026-05-09 20:13 | -50.28250 | -72.05255 | 641 ft | 0 kts | 264° |
| 2026-05-09 20:16 | -50.28250 | -72.05259 | 641 ft | 2 kts | 264° |
| 2026-05-09 20:17 | -50.28251 | -72.05282 | 641 ft | 4 kts | 264° |
| 2026-05-09 20:17 | -50.28252 | -72.05353 | 641 ft | 9 kts | 283° |
| 2026-05-09 20:17 | -50.28182 | -72.05404 | 641 ft | 14 kts | 354° |
| 2026-05-09 20:17 | -50.28066 | -72.05413 | 642 ft | 18 kts | 10° |
| 2026-05-09 20:18 | -50.28014 | -72.05238 | 643 ft | 21 kts | 85° |
| 2026-05-09 20:18 | -50.27999 | -72.04988 | 644 ft | 24 kts | 85° |
| 2026-05-09 20:18 | -50.27984 | -72.04707 | 644 ft | 28 kts | 84° |
| 2026-05-09 20:18 | -50.27964 | -72.04389 | 643 ft | 31 kts | 85° |
| 2026-05-09 20:19 | -50.27943 | -72.04034 | 641 ft | 34 kts | 85° |
| 2026-05-09 20:19 | -50.27941 | -72.03742 | 642 ft | 22 kts | 110° |
| 2026-05-09 20:19 | -50.27962 | -72.03576 | 642 ft | 12 kts | 82° |
| 2026-05-09 20:19 | -50.27920 | -72.03582 | 642 ft | 7 kts | 283° |
| 2026-05-09 20:20 | -50.27919 | -72.03602 | 642 ft | 0 kts | 270° |
| 2026-05-09 20:21 | -50.27928 | -72.03787 | 640 ft | 35 kts | 265° |
| 2026-05-09 20:21 | -50.27958 | -72.04296 | 642 ft | 57 kts | 264° |
| 2026-05-09 20:21 | -50.28005 | -72.05110 | 643 ft | 105 kts | 264° |
| 2026-05-09 20:22 | -50.28093 | -72.06552 | 675 ft | 156 kts | 265° |
| 2026-05-09 20:22 | -50.28197 | -72.08255 | 1271 ft | 161 kts | 267° |
| 2026-05-09 20:22 | -50.28280 | -72.10023 | 1940 ft | 165 kts | 266° |
| 2026-05-09 20:22 | -50.28387 | -72.11898 | 2394 ft | 184 kts | 265° |
| 2026-05-09 20:23 | -50.28490 | -72.13978 | 2663 ft | 194 kts | 266° |
| 2026-05-09 20:23 | -50.28558 | -72.16110 | 2788 ft | 200 kts | 267° |
| 2026-05-09 20:23 | -50.28631 | -72.18332 | 2833 ft | 213 kts | 266° |
| 2026-05-09 20:23 | -50.28707 | -72.20736 | 2839 ft | 231 kts | 266° |
| 2026-05-09 20:24 | -50.28784 | -72.23204 | 2842 ft | 222 kts | 266° |
| 2026-05-09 20:24 | -50.28861 | -72.25587 | 2856 ft | 220 kts | 266° |
| 2026-05-09 20:24 | -50.28918 | -72.27971 | 3219 ft | 219 kts | 269° |
| 2026-05-09 20:24 | -50.28628 | -72.30285 | 3623 ft | 220 kts | 295° |
| 2026-05-09 20:25 | -50.27658 | -72.32121 | 3934 ft | 224 kts | 323° |
| 2026-05-09 20:25 | -50.26202 | -72.32970 | 4160 ft | 230 kts | 354° |
| 2026-05-09 20:25 | -50.24633 | -72.32505 | 4413 ft | 236 kts | 26° |
| 2026-05-09 20:25 | -50.23373 | -72.30863 | 4636 ft | 240 kts | 46° |
| 2026-05-09 20:26 | -50.22247 | -72.28930 | 4911 ft | 242 kts | 47° |
| 2026-05-09 20:26 | -50.21120 | -72.26973 | 5186 ft | 244 kts | 47° |
| 2026-05-09 20:26 | -50.19978 | -72.25005 | 5420 ft | 246 kts | 46° |
| 2026-05-09 20:26 | -50.18817 | -72.23028 | 5657 ft | 249 kts | 46° |
| 2026-05-09 20:27 | -50.17642 | -72.21050 | 5860 ft | 248 kts | 46° |
| 2026-05-09 20:27 | -50.16461 | -72.19075 | 6056 ft | 251 kts | 46° |
| 2026-05-09 20:27 | -50.15268 | -72.17078 | 6301 ft | 253 kts | 46° |
| 2026-05-09 20:27 | -50.14067 | -72.15071 | 6552 ft | 255 kts | 46° |
| 2026-05-09 20:28 | -50.12855 | -72.13054 | 6811 ft | 256 kts | 46° |
| 2026-05-09 20:28 | -50.11640 | -72.11028 | 7134 ft | 257 kts | 46° |
| 2026-05-09 20:28 | -50.10417 | -72.08989 | 7459 ft | 259 kts | 46° |
| 2026-05-09 20:29 | -50.07934 | -72.04886 | 8099 ft | 263 kts | 46° |
| 2026-05-09 20:29 | -50.06680 | -72.02814 | 8399 ft | 265 kts | 46° |
| 2026-05-09 20:29 | -50.05417 | -72.00724 | 8715 ft | 266 kts | 46° |
| 2026-05-09 20:29 | -50.04145 | -71.98622 | 9013 ft | 269 kts | 46° |
| 2026-05-09 20:30 | -50.02863 | -71.96508 | 9308 ft | 270 kts | 45° |
| 2026-05-09 20:30 | -50.01570 | -71.94381 | 9589 ft | 273 kts | 45° |
| 2026-05-09 20:30 | -50.00262 | -71.92236 | 9869 ft | 276 kts | 45° |
| 2026-05-09 20:30 | -49.98939 | -71.90064 | 10144 ft | 278 kts | 45° |
| 2026-05-09 20:31 | -49.97604 | -71.87872 | 10413 ft | 281 kts | 44° |
| 2026-05-09 20:31 | -49.96259 | -71.85661 | 10689 ft | 283 kts | 44° |
| 2026-05-09 20:31 | -49.94899 | -71.83427 | 10949 ft | 286 kts | 44° |
| 2026-05-09 20:31 | -49.93526 | -71.81174 | 11203 ft | 289 kts | 43° |
| 2026-05-09 20:32 | -49.92139 | -71.78902 | 11434 ft | 292 kts | 43° |
| 2026-05-09 20:32 | -49.90741 | -71.76610 | 11663 ft | 294 kts | 43° |
| 2026-05-09 20:32 | -49.89331 | -71.74302 | 11908 ft | 297 kts | 43° |
| 2026-05-09 20:32 | -49.87911 | -71.71979 | 12171 ft | 298 kts | 43° |
| 2026-05-09 20:33 | -49.86478 | -71.69644 | 12410 ft | 301 kts | 42° |
| 2026-05-09 20:33 | -49.85027 | -71.67291 | 12674 ft | 303 kts | 42° |
| 2026-05-09 20:33 | -49.83570 | -71.64924 | 12955 ft | 306 kts | 42° |
| 2026-05-09 20:33 | -49.82104 | -71.62539 | 13226 ft | 307 kts | 42° |
| 2026-05-09 20:34 | -49.80630 | -71.60139 | 13488 ft | 309 kts | 42° |
| 2026-05-09 20:34 | -49.79643 | -71.58531 | 13667 ft | 310 kts | 42° |
| 2026-05-09 20:34 | -49.77648 | -71.55307 | 13750 ft | 312 kts | 41° |
| 2026-05-09 20:34 | -49.76140 | -71.52904 | 13750 ft | 312 kts | 41° |
| 2026-05-09 20:35 | -49.74636 | -71.50500 | 13751 ft | 312 kts | 41° |
| 2026-05-09 20:35 | -49.73138 | -71.48090 | 13750 ft | 312 kts | 42° |
| 2026-05-09 20:35 | -49.71640 | -71.45683 | 13748 ft | 311 kts | 42° |
| 2026-05-09 20:35 | -49.70141 | -71.43276 | 13745 ft | 311 kts | 42° |
| 2026-05-09 20:36 | -49.69095 | -71.41595 | 13745 ft | 311 kts | 42° |
| 2026-05-09 20:36 | -49.67599 | -71.39185 | 13747 ft | 311 kts | 42° |
| 2026-05-09 20:36 | -49.66106 | -71.36784 | 13747 ft | 310 kts | 43° |
| 2026-05-09 20:36 | -49.64614 | -71.34387 | 13746 ft | 310 kts | 42° |
| 2026-05-09 20:37 | -49.63127 | -71.31993 | 13747 ft | 309 kts | 43° |
| 2026-05-09 20:37 | -49.61603 | -71.29665 | 13748 ft | 308 kts | 36° |
| 2026-05-09 20:37 | -49.59930 | -71.27656 | 13748 ft | 304 kts | 29° |
| 2026-05-09 20:37 | -49.58203 | -71.25773 | 13750 ft | 305 kts | 30° |
| 2026-05-09 20:38 | -49.56486 | -71.23867 | 13750 ft | 305 kts | 31° |
| 2026-05-09 20:38 | -49.54774 | -71.21957 | 13748 ft | 304 kts | 31° |
| 2026-05-09 20:38 | -49.53063 | -71.20047 | 13749 ft | 305 kts | 31° |
| 2026-05-09 20:38 | -49.51351 | -71.18141 | 13747 ft | 304 kts | 31° |
| 2026-05-09 20:39 | -49.49637 | -71.16239 | 13746 ft | 304 kts | 31° |
| 2026-05-09 20:39 | -49.47927 | -71.14347 | 13748 ft | 304 kts | 31° |
| 2026-05-09 20:39 | -49.46215 | -71.12457 | 13748 ft | 303 kts | 31° |
| 2026-05-09 20:39 | -49.44507 | -71.10571 | 13745 ft | 303 kts | 31° |
| 2026-05-09 20:40 | -49.42800 | -71.08683 | 13746 ft | 303 kts | 31° |
| 2026-05-09 20:40 | -49.41099 | -71.06778 | 13744 ft | 302 kts | 32° |
| 2026-05-09 20:40 | -49.39411 | -71.04883 | 13851 ft | 308 kts | 31° |
| 2026-05-09 20:40 | -49.37592 | -71.02940 | 14112 ft | 331 kts | 30° |
| 2026-05-09 20:41 | -49.35627 | -71.00882 | 14331 ft | 354 kts | 30° |
| 2026-05-09 20:41 | -49.33528 | -70.98679 | 14500 ft | 378 kts | 31° |
| 2026-05-09 20:41 | -49.31309 | -70.96316 | 14644 ft | 400 kts | 31° |
| 2026-05-09 20:41 | -49.28981 | -70.93804 | 14811 ft | 419 kts | 32° |
| 2026-05-09 20:42 | -49.26584 | -70.91190 | 15285 ft | 427 kts | 32° |
| 2026-05-09 20:42 | -49.24217 | -70.88547 | 15608 ft | 411 kts | 33° |
| 2026-05-09 20:42 | -49.21996 | -70.85973 | 15726 ft | 392 kts | 33° |
| 2026-05-09 20:42 | -49.19875 | -70.83524 | 15849 ft | 376 kts | 33° |
| 2026-05-09 20:43 | -49.17813 | -70.81198 | 15970 ft | 361 kts | 32° |
| 2026-05-09 20:43 | -49.15814 | -70.78996 | 16100 ft | 349 kts | 31° |
| 2026-05-09 20:43 | -49.13865 | -70.76892 | 16216 ft | 338 kts | 30° |
| 2026-05-09 20:43 | -49.11989 | -70.74884 | 16424 ft | 324 kts | 30° |
| 2026-05-09 20:44 | -49.10177 | -70.72942 | 16546 ft | 314 kts | 30° |
| 2026-05-09 20:44 | -49.08412 | -70.71061 | 16668 ft | 309 kts | 29° |
| 2026-05-09 20:44 | -49.06664 | -70.69207 | 16791 ft | 304 kts | 29° |
| 2026-05-09 20:44 | -49.04970 | -70.67390 | 16909 ft | 294 kts | 29° |
| 2026-05-09 20:45 | -49.03308 | -70.65614 | 17036 ft | 295 kts | 28° |
| 2026-05-09 20:45 | -49.01555 | -70.63800 | 17198 ft | 316 kts | 28° |
| 2026-05-09 20:45 | -48.99666 | -70.61873 | 17385 ft | 339 kts | 28° |
| 2026-05-09 20:45 | -48.97649 | -70.59800 | 17537 ft | 362 kts | 30° |
| 2026-05-09 20:46 | -48.95511 | -70.57565 | 17671 ft | 385 kts | 30° |
| 2026-05-09 20:46 | -48.93268 | -70.55180 | 17798 ft | 405 kts | 31° |
| 2026-05-09 20:46 | -48.90915 | -70.52650 | 17916 ft | 424 kts | 31° |
| 2026-05-09 20:46 | -48.88464 | -70.50010 | 18049 ft | 441 kts | 31° |
| 2026-05-09 20:47 | -48.85926 | -70.47283 | 18306 ft | 453 kts | 32° |
| 2026-05-09 20:47 | -48.83341 | -70.44506 | 18767 ft | 458 kts | 32° |
| 2026-05-09 20:47 | -48.80730 | -70.41708 | 19270 ft | 462 kts | 31° |
| 2026-05-09 20:47 | -48.78098 | -70.38900 | 19761 ft | 466 kts | 31° |
| 2026-05-09 20:48 | -48.75443 | -70.36076 | 20244 ft | 469 kts | 31° |
| 2026-05-09 20:48 | -48.72770 | -70.33234 | 20723 ft | 472 kts | 31° |
| 2026-05-09 20:48 | -48.70072 | -70.30372 | 21190 ft | 476 kts | 31° |
| 2026-05-09 20:48 | -48.67355 | -70.27502 | 21634 ft | 479 kts | 31° |
| 2026-05-09 20:49 | -48.64614 | -70.24619 | 22094 ft | 482 kts | 31° |
| 2026-05-09 20:49 | -48.61857 | -70.21723 | 22535 ft | 485 kts | 31° |
| 2026-05-09 20:49 | -48.59084 | -70.18805 | 22942 ft | 489 kts | 31° |
| 2026-05-09 20:49 | -48.56294 | -70.15866 | 23358 ft | 492 kts | 31° |
| 2026-05-09 20:50 | -48.53489 | -70.12914 | 23761 ft | 494 kts | 31° |
| 2026-05-09 20:50 | -48.50660 | -70.09946 | 24125 ft | 497 kts | 31° |
| 2026-05-09 20:50 | -48.47814 | -70.06965 | 24482 ft | 501 kts | 31° |
| 2026-05-09 20:50 | -48.44949 | -70.03967 | 24834 ft | 505 kts | 31° |
| 2026-05-09 20:51 | -48.42067 | -70.00943 | 25169 ft | 508 kts | 31° |
| 2026-05-09 20:51 | -48.39167 | -69.97874 | 25482 ft | 512 kts | 31° |
| 2026-05-09 20:51 | -48.36251 | -69.94779 | 25786 ft | 516 kts | 31° |
| 2026-05-09 20:51 | -48.33315 | -69.91669 | 26094 ft | 520 kts | 31° |
| 2026-05-09 20:52 | -48.30349 | -69.88539 | 26393 ft | 523 kts | 31° |
| 2026-05-09 20:52 | -48.27369 | -69.85404 | 26675 ft | 527 kts | 31° |
| 2026-05-09 20:52 | -48.24357 | -69.82244 | 26946 ft | 530 kts | 31° |
| 2026-05-09 20:52 | -48.21332 | -69.79073 | 27198 ft | 533 kts | 31° |
| 2026-05-09 20:53 | -48.18291 | -69.75887 | 27440 ft | 536 kts | 31° |
| 2026-05-09 20:53 | -48.15228 | -69.72682 | 27657 ft | 541 kts | 31° |
| 2026-05-09 20:53 | -48.12149 | -69.69471 | 27887 ft | 542 kts | 30° |
| 2026-05-09 20:53 | -48.09045 | -69.66258 | 28121 ft | 543 kts | 30° |
| 2026-05-09 20:54 | -48.05931 | -69.63039 | 28333 ft | 548 kts | 30° |
| 2026-05-09 20:54 | -48.02808 | -69.59798 | 28585 ft | 548 kts | 30° |
| 2026-05-09 20:54 | -47.99670 | -69.56535 | 28843 ft | 551 kts | 30° |
| 2026-05-09 20:54 | -47.96542 | -69.53269 | 29114 ft | 551 kts | 31° |
| 2026-05-09 20:55 | -47.93393 | -69.49980 | 29380 ft | 555 kts | 31° |
| 2026-05-09 20:55 | -47.90233 | -69.46692 | 29721 ft | 554 kts | 31° |
| 2026-05-09 20:55 | -47.87069 | -69.43431 | 30001 ft | 555 kts | 30° |
| 2026-05-09 20:55 | -47.83883 | -69.40170 | 30308 ft | 556 kts | 30° |
| 2026-05-09 20:56 | -47.80699 | -69.36913 | 30592 ft | 557 kts | 30° |
| 2026-05-09 20:56 | -47.74317 | -69.30363 | 31144 ft | 560 kts | 31° |
| 2026-05-09 20:56 | -47.71118 | -69.27078 | 31444 ft | 560 kts | 31° |
| 2026-05-09 20:57 | -47.67955 | -69.23818 | 31773 ft | 543 kts | 31° |
| 2026-05-09 20:57 | -47.64951 | -69.20664 | 32159 ft | 517 kts | 32° |
| 2026-05-09 20:57 | -47.62094 | -69.17657 | 32566 ft | 492 kts | 31° |
| 2026-05-09 20:57 | -47.59329 | -69.14790 | 32721 ft | 482 kts | 31° |
| 2026-05-09 20:58 | -47.56586 | -69.12015 | 32850 ft | 475 kts | 30° |
| 2026-05-09 20:58 | -47.53871 | -69.09309 | 32970 ft | 468 kts | 30° |
| 2026-05-09 20:58 | -47.51189 | -69.06641 | 32982 ft | 466 kts | 30° |
| 2026-05-09 20:58 | -47.48487 | -69.03956 | 32502 ft | 470 kts | 30° |
| 2026-05-09 20:59 | -47.45742 | -69.01241 | 31507 ft | 483 kts | 30° |
| 2026-05-09 20:59 | -47.42914 | -68.98440 | 30427 ft | 497 kts | 30° |
| 2026-05-09 20:59 | -47.40013 | -68.95547 | 29300 ft | 511 kts | 30° |
| 2026-05-09 21:00 | -47.34104 | -68.89586 | 27880 ft | 513 kts | 31° |
| 2026-05-09 21:00 | -47.31190 | -68.86625 | 27313 ft | 507 kts | 31° |
| 2026-05-09 21:00 | -47.28310 | -68.83699 | 26828 ft | 501 kts | 32° |
| 2026-05-09 21:00 | -47.25436 | -68.80801 | 25751 ft | 508 kts | 31° |
| 2026-05-09 21:01 | -47.22524 | -68.77889 | 25353 ft | 499 kts | 32° |
| 2026-05-09 21:01 | -47.19704 | -68.75076 | 25232 ft | 483 kts | 32° |
| 2026-05-09 21:01 | -47.16961 | -68.72345 | 24929 ft | 473 kts | 31° |
| 2026-05-09 21:02 | -47.11596 | -68.67016 | 24052 ft | 460 kts | 32° |
| 2026-05-09 21:02 | -47.08966 | -68.64400 | 23559 ft | 455 kts | 32° |
| 2026-05-09 21:02 | -47.06359 | -68.61816 | 23063 ft | 451 kts | 32° |
| 2026-05-09 21:02 | -47.03774 | -68.59262 | 22552 ft | 447 kts | 32° |
| 2026-05-09 21:03 | -47.01209 | -68.56725 | 22040 ft | 444 kts | 32° |
| 2026-05-09 21:03 | -46.98681 | -68.54224 | 21541 ft | 441 kts | 32° |
| 2026-05-09 21:03 | -46.96155 | -68.51719 | 21042 ft | 437 kts | 32° |
| 2026-05-09 21:03 | -46.93659 | -68.49252 | 20534 ft | 432 kts | 32° |
| 2026-05-09 21:04 | -46.91174 | -68.46806 | 19996 ft | 430 kts | 33° |
| 2026-05-09 21:04 | -46.88700 | -68.44368 | 19510 ft | 428 kts | 33° |
| 2026-05-09 21:04 | -46.86247 | -68.41957 | 19023 ft | 425 kts | 33° |
| 2026-05-09 21:04 | -46.83803 | -68.39559 | 18538 ft | 423 kts | 33° |
| 2026-05-09 21:05 | -46.81377 | -68.37177 | 18077 ft | 420 kts | 33° |
| 2026-05-09 21:05 | -46.78968 | -68.34818 | 17618 ft | 417 kts | 33° |
| 2026-05-09 21:05 | -46.76572 | -68.32477 | 17181 ft | 413 kts | 33° |
| 2026-05-09 21:05 | -46.74201 | -68.30165 | 16739 ft | 410 kts | 33° |
| 2026-05-09 21:06 | -46.71855 | -68.27880 | 16282 ft | 403 kts | 33° |
| 2026-05-09 21:06 | -46.69534 | -68.25615 | 15821 ft | 401 kts | 33° |
| 2026-05-09 21:06 | -46.67234 | -68.23365 | 15378 ft | 398 kts | 33° |
| 2026-05-09 21:06 | -46.64954 | -68.21136 | 14953 ft | 394 kts | 33° |
| 2026-05-09 21:07 | -46.62693 | -68.18926 | 14540 ft | 391 kts | 33° |
| 2026-05-09 21:07 | -46.60452 | -68.16740 | 14133 ft | 387 kts | 33° |
| 2026-05-09 21:07 | -46.58232 | -68.14581 | 13737 ft | 383 kts | 33° |
| 2026-05-09 21:07 | -46.56029 | -68.12447 | 13324 ft | 379 kts | 33° |
| 2026-05-09 21:08 | -46.53983 | -68.10076 | 12918 ft | 376 kts | 44° |
| 2026-05-09 21:08 | -46.52219 | -68.07328 | 12550 ft | 370 kts | 49° |
| 2026-05-09 21:08 | -46.50524 | -68.04584 | 12300 ft | 361 kts | 49° |
| 2026-05-09 21:08 | -46.50080 | -68.03865 | 12230 ft | 359 kts | 48° |
| 2026-05-09 21:09 | -46.48502 | -68.01307 | 11987 ft | 352 kts | 48° |
| 2026-05-09 21:09 | -46.46892 | -67.98692 | 11743 ft | 344 kts | 48° |
| 2026-05-09 21:09 | -46.45316 | -67.96135 | 11493 ft | 337 kts | 48° |
| 2026-05-09 21:09 | -46.43768 | -67.93635 | 11244 ft | 331 kts | 48° |
| 2026-05-09 21:10 | -46.42248 | -67.91185 | 10994 ft | 324 kts | 47° |
| 2026-05-09 21:10 | -46.40751 | -67.88785 | 10744 ft | 318 kts | 48° |
| 2026-05-09 21:10 | -46.39285 | -67.86433 | 10494 ft | 313 kts | 48° |
| 2026-05-09 21:10 | -46.37841 | -67.84118 | 10240 ft | 307 kts | 48° |
| 2026-05-09 21:11 | -46.36426 | -67.81846 | 10033 ft | 300 kts | 48° |
| 2026-05-09 21:12 | -46.31144 | -67.73366 | 9516 ft | 276 kts | 50° |
| 2026-05-09 21:12 | -46.29868 | -67.71298 | 9397 ft | 276 kts | 50° |
| 2026-05-09 21:12 | -46.28570 | -67.69183 | 9277 ft | 291 kts | 51° |
| 2026-05-09 21:12 | -46.27199 | -67.66908 | 9149 ft | 310 kts | 51° |
| 2026-05-09 21:13 | -46.25754 | -67.64546 | 9022 ft | 315 kts | 49° |
| 2026-05-09 21:13 | -46.24270 | -67.62201 | 8712 ft | 317 kts | 49° |
| 2026-05-09 21:13 | -46.22788 | -67.59901 | 8349 ft | 312 kts | 48° |
| 2026-05-09 21:13 | -46.21310 | -67.57621 | 8008 ft | 310 kts | 49° |
| 2026-05-09 21:14 | -46.19842 | -67.55353 | 7678 ft | 307 kts | 48° |
| 2026-05-09 21:14 | -46.18402 | -67.53111 | 7321 ft | 303 kts | 48° |
| 2026-05-09 21:14 | -46.16993 | -67.50878 | 6945 ft | 300 kts | 49° |
| 2026-05-09 21:14 | -46.15595 | -67.48653 | 6607 ft | 299 kts | 48° |
| 2026-05-09 21:15 | -46.14201 | -67.46465 | 6268 ft | 295 kts | 48° |
| 2026-05-09 21:15 | -46.12828 | -67.44289 | 5908 ft | 294 kts | 49° |
| 2026-05-09 21:15 | -46.11468 | -67.42120 | 5583 ft | 292 kts | 49° |
| 2026-05-09 21:15 | -46.10121 | -67.39966 | 5274 ft | 288 kts | 49° |
| 2026-05-09 21:16 | -46.08787 | -67.37843 | 4936 ft | 284 kts | 48° |
| 2026-05-09 21:16 | -46.07474 | -67.35764 | 4713 ft | 276 kts | 48° |
| 2026-05-09 21:16 | -46.06209 | -67.33767 | 4588 ft | 265 kts | 47° |
| 2026-05-09 21:16 | -46.04991 | -67.31850 | 4462 ft | 255 kts | 47° |
| 2026-05-09 21:17 | -46.03820 | -67.30005 | 4335 ft | 246 kts | 47° |
| 2026-05-09 21:17 | -46.02691 | -67.28226 | 4211 ft | 237 kts | 47° |
| 2026-05-09 21:17 | -46.01592 | -67.26496 | 4087 ft | 234 kts | 47° |
| 2026-05-09 21:17 | -46.00502 | -67.24777 | 3960 ft | 233 kts | 47° |
| 2026-05-09 21:18 | -45.99419 | -67.23068 | 3830 ft | 232 kts | 47° |
| 2026-05-09 21:18 | -45.98312 | -67.21393 | 3709 ft | 231 kts | 40° |
| 2026-05-09 21:18 | -45.97007 | -67.20080 | 3570 ft | 229 kts | 26° |
| 2026-05-09 21:18 | -45.95564 | -67.19150 | 3462 ft | 227 kts | 21° |
| 2026-05-09 21:19 | -45.91244 | -67.16451 | 3093 ft | 225 kts | 22° |
| 2026-05-09 21:19 | -45.89817 | -67.15563 | 2955 ft | 223 kts | 22° |
| 2026-05-09 21:20 | -45.88404 | -67.14675 | 2998 ft | 223 kts | 22° |
| 2026-05-09 21:20 | -45.87394 | -67.14033 | 3005 ft | 223 kts | 22° |
| 2026-05-09 21:20 | -45.86672 | -67.13569 | 3005 ft | 223 kts | 22° |
| 2026-05-09 21:20 | -45.85253 | -67.12682 | 3008 ft | 223 kts | 18° |
| 2026-05-09 21:21 | -45.83748 | -67.12294 | 3014 ft | 220 kts | 356° |
| 2026-05-09 21:21 | -45.82259 | -67.12688 | 2891 ft | 217 kts | 336° |
| 2026-05-09 21:21 | -45.80953 | -67.13713 | 2730 ft | 214 kts | 326° |
| 2026-05-09 21:21 | -45.79682 | -67.14822 | 2567 ft | 214 kts | 327° |
| 2026-05-09 21:22 | -45.78410 | -67.15914 | 2419 ft | 213 kts | 327° |
| 2026-05-09 21:22 | -45.77147 | -67.17005 | 2265 ft | 212 kts | 324° |
| 2026-05-09 21:22 | -45.76469 | -67.17802 | 2169 ft | 210 kts | 312° |
| 2026-05-09 21:22 | -45.75767 | -67.19180 | 2087 ft | 209 kts | 296° |
| 2026-05-09 21:23 | -45.75337 | -67.21141 | 2005 ft | 207 kts | 275° |
| 2026-05-09 21:23 | -45.75420 | -67.23190 | 2010 ft | 208 kts | 260° |
| 2026-05-09 21:23 | -45.75689 | -67.25221 | 2009 ft | 208 kts | 259° |
| 2026-05-09 21:23 | -45.75964 | -67.27253 | 2008 ft | 208 kts | 259° |
| 2026-05-09 21:24 | -45.76236 | -67.29316 | 2008 ft | 213 kts | 258° |
| 2026-05-09 21:24 | -45.76517 | -67.31407 | 1907 ft | 215 kts | 258° |
| 2026-05-09 21:24 | -45.76800 | -67.33490 | 1681 ft | 213 kts | 258° |
| 2026-05-09 21:24 | -45.77075 | -67.35545 | 1410 ft | 206 kts | 259° |
| 2026-05-09 21:25 | -45.77335 | -67.37507 | 1146 ft | 196 kts | 259° |
| 2026-05-09 21:25 | -45.77579 | -67.39365 | 909 ft | 184 kts | 259° |
| 2026-05-09 21:25 | -45.77806 | -67.41082 | 669 ft | 169 kts | 259° |
| 2026-05-09 21:25 | -45.78015 | -67.42675 | 434 ft | 158 kts | 259° |
| 2026-05-09 21:26 | -45.78214 | -67.44189 | 246 ft | 153 kts | 262° |
| 2026-05-09 21:26 | -45.78378 | -67.45748 | 413 ft | 159 kts | 263° |
| 2026-05-09 21:26 | -45.78529 | -67.47279 | 868 ft | 156 kts | 267° |
| 2026-05-09 21:26 | -45.78673 | -67.48809 | 1252 ft | 155 kts | 267° |
| 2026-05-09 21:27 | -45.78837 | -67.50354 | 1595 ft | 158 kts | 265° |
| 2026-05-09 21:27 | -45.79023 | -67.51887 | 1962 ft | 157 kts | 259° |
| 2026-05-09 21:27 | -45.79225 | -67.53455 | 2161 ft | 170 kts | 258° |
| 2026-05-09 21:27 | -45.79459 | -67.55228 | 2172 ft | 192 kts | 258° |
| 2026-05-09 21:28 | -45.79725 | -67.57231 | 2224 ft | 214 kts | 258° |
| 2026-05-09 21:28 | -45.80011 | -67.59318 | 2678 ft | 213 kts | 256° |
| 2026-05-09 21:28 | -45.80730 | -67.61157 | 2968 ft | 219 kts | 222° |
| 2026-05-09 21:28 | -45.82118 | -67.61955 | 3005 ft | 222 kts | 181° |
| 2026-05-09 21:29 | -45.83602 | -67.61427 | 3016 ft | 222 kts | 158° |
| 2026-05-09 21:29 | -45.84969 | -67.60428 | 3009 ft | 220 kts | 153° |
| 2026-05-09 21:29 | -45.86303 | -67.59393 | 3009 ft | 217 kts | 154° |
| 2026-05-09 21:29 | -45.87633 | -67.58378 | 3009 ft | 218 kts | 149° |
| 2026-05-09 21:30 | -45.88660 | -67.56802 | 3009 ft | 221 kts | 116° |
| 2026-05-09 21:30 | -45.88963 | -67.54650 | 3010 ft | 224 kts | 91° |
| 2026-05-09 21:30 | -45.88901 | -67.52419 | 3010 ft | 224 kts | 86° |
| 2026-05-09 21:30 | -45.88784 | -67.50187 | 3009 ft | 225 kts | 86° |
| 2026-05-09 21:31 | -45.88660 | -67.47958 | 3009 ft | 224 kts | 86° |
| 2026-05-09 21:31 | -45.88530 | -67.45740 | 2889 ft | 223 kts | 84° |
| 2026-05-09 21:31 | -45.88224 | -67.43568 | 2650 ft | 221 kts | 76° |
| 2026-05-09 21:31 | -45.87819 | -67.41463 | 2423 ft | 218 kts | 75° |
| 2026-05-09 21:32 | -45.87400 | -67.39389 | 2216 ft | 215 kts | 75° |
| 2026-05-09 21:32 | -45.86987 | -67.37348 | 2064 ft | 211 kts | 75° |
| 2026-05-09 21:32 | -45.86589 | -67.35325 | 2006 ft | 211 kts | 75° |
| 2026-05-09 21:32 | -45.86201 | -67.33296 | 2007 ft | 212 kts | 76° |
| 2026-05-09 21:33 | -45.85812 | -67.31262 | 2009 ft | 212 kts | 76° |
| 2026-05-09 21:33 | -45.85424 | -67.29229 | 2010 ft | 212 kts | 76° |
| 2026-05-09 21:33 | -45.85044 | -67.27185 | 2008 ft | 214 kts | 75° |
| 2026-05-09 21:33 | -45.84685 | -67.25108 | 2009 ft | 216 kts | 76° |
| 2026-05-09 21:34 | -45.84325 | -67.23022 | 2008 ft | 216 kts | 76° |
| 2026-05-09 21:34 | -45.84061 | -67.21497 | 2007 ft | 216 kts | 76° |
| 2026-05-09 21:34 | -45.83698 | -67.19410 | 2010 ft | 216 kts | 76° |
| 2026-05-09 21:34 | -45.83126 | -67.17439 | 2009 ft | 216 kts | 50° |
| 2026-05-09 21:35 | -45.81929 | -67.16219 | 2010 ft | 213 kts | 15° |
| 2026-05-09 21:35 | -45.80482 | -67.16177 | 2013 ft | 211 kts | 340° |
| 2026-05-09 21:35 | -45.79277 | -67.17294 | 2010 ft | 208 kts | 312° |
| 2026-05-09 21:35 | -45.78354 | -67.18881 | 2009 ft | 208 kts | 306° |
| 2026-05-09 21:36 | -45.77484 | -67.20530 | 2007 ft | 208 kts | 306° |
| 2026-05-09 21:36 | -45.76620 | -67.22188 | 2006 ft | 208 kts | 305° |
| 2026-05-09 21:36 | -45.75946 | -67.24006 | 2011 ft | 208 kts | 285° |
| 2026-05-09 21:36 | -45.75815 | -67.26040 | 2007 ft | 207 kts | 262° |
| 2026-05-09 21:37 | -45.76066 | -67.28069 | 2008 ft | 208 kts | 259° |
| 2026-05-09 21:37 | -45.76342 | -67.30121 | 2004 ft | 213 kts | 258° |
| 2026-05-09 21:37 | -45.76625 | -67.32206 | 1829 ft | 214 kts | 258° |
| 2026-05-09 21:37 | -45.76907 | -67.34282 | 1579 ft | 211 kts | 258° |
| 2026-05-09 21:38 | -45.77139 | -67.36026 | 1345 ft | 202 kts | 259° |
| 2026-05-09 21:38 | -45.77322 | -67.37413 | 1172 ft | 193 kts | 259° |
| 2026-05-09 21:38 | -45.77562 | -67.39230 | 923 ft | 179 kts | 259° |
| 2026-05-09 21:38 | -45.77785 | -67.40911 | 688 ft | 166 kts | 259° |
| 2026-05-09 21:39 | -45.77875 | -67.41593 | 589 ft | 161 kts | 260° |
| 2026-05-09 21:39 | -45.77891 | -67.41716 | 575 ft | 160 kts | 260° |
| 2026-05-09 21:39 | -45.78090 | -67.43240 | 385 ft | 153 kts | 262° |
| 2026-05-09 21:39 | -45.78263 | -67.44718 | 234 ft | 146 kts | 261° |
| 2026-05-09 21:40 | -45.78438 | -67.46034 | 212 ft | 137 kts | 269° |
| 2026-05-09 21:40 | -45.78570 | -67.46967 | 228 ft | 151 kts | 265° |
| 2026-05-09 21:40 | -45.78767 | -67.48511 | 449 ft | 162 kts | 262° |
| 2026-05-09 21:40 | -45.78961 | -67.50518 | 1131 ft | 151 kts | 263° |
| 2026-05-09 21:41 | -45.79120 | -67.52005 | 1513 ft | 152 kts | 261° |
| 2026-05-09 21:41 | -45.79297 | -67.53497 | 1874 ft | 153 kts | 261° |
| 2026-05-09 21:41 | -45.79486 | -67.55063 | 1998 ft | 172 kts | 255° |
| 2026-05-09 21:41 | -45.80073 | -67.56637 | 2022 ft | 191 kts | 225° |
| 2026-05-09 21:42 | -45.81235 | -67.57742 | 2099 ft | 211 kts | 200° |
| 2026-05-09 21:42 | -45.82697 | -67.57930 | 2477 ft | 217 kts | 168° |
| 2026-05-09 21:42 | -45.84041 | -67.56982 | 2890 ft | 220 kts | 138° |
| 2026-05-09 21:42 | -45.84885 | -67.55165 | 2995 ft | 223 kts | 106° |
| 2026-05-09 21:43 | -45.85049 | -67.52965 | 3010 ft | 223 kts | 89° |
| 2026-05-09 21:43 | -45.84982 | -67.50744 | 3010 ft | 224 kts | 87° |
| 2026-05-09 21:43 | -45.84866 | -67.48522 | 3009 ft | 223 kts | 86° |
| 2026-05-09 21:43 | -45.84736 | -67.46311 | 2889 ft | 222 kts | 86° |
| 2026-05-09 21:44 | -45.84582 | -67.44120 | 2667 ft | 220 kts | 85° |
| 2026-05-09 21:44 | -45.84416 | -67.41961 | 2449 ft | 217 kts | 85° |
| 2026-05-09 21:44 | -45.84247 | -67.39837 | 2237 ft | 213 kts | 85° |
| 2026-05-09 21:44 | -45.84083 | -67.37738 | 2072 ft | 210 kts | 85° |
| 2026-05-09 21:45 | -45.83935 | -67.35659 | 2007 ft | 209 kts | 85° |
| 2026-05-09 21:45 | -45.83797 | -67.33582 | 2009 ft | 210 kts | 85° |
| 2026-05-09 21:45 | -45.83660 | -67.31503 | 2008 ft | 210 kts | 85° |
| 2026-05-09 21:45 | -45.83522 | -67.29426 | 2010 ft | 210 kts | 85° |
| 2026-05-09 21:46 | -45.83226 | -67.27390 | 2011 ft | 211 kts | 63° |
| 2026-05-09 21:46 | -45.82237 | -67.25878 | 2013 ft | 212 kts | 27° |
| 2026-05-09 21:46 | -45.80829 | -67.25394 | 2013 ft | 210 kts | 359° |
| 2026-05-09 21:46 | -45.79430 | -67.25695 | 2006 ft | 198 kts | 340° |
| 2026-05-09 21:47 | -45.78240 | -67.26579 | 2005 ft | 190 kts | 322° |
| 2026-05-09 21:47 | -45.77312 | -67.27911 | 2009 ft | 192 kts | 304° |
| 2026-05-09 21:47 | -45.76711 | -67.29608 | 2012 ft | 193 kts | 285° |
| 2026-05-09 21:47 | -45.76553 | -67.31490 | 1918 ft | 189 kts | 263° |
| 2026-05-09 21:48 | -45.76774 | -67.33299 | 1712 ft | 180 kts | 258° |
| 2026-05-09 21:48 | -45.77003 | -67.35002 | 1485 ft | 169 kts | 259° |
| 2026-05-09 21:48 | -45.77216 | -67.36592 | 1271 ft | 158 kts | 259° |
| 2026-05-09 21:48 | -45.77414 | -67.38104 | 1067 ft | 153 kts | 259° |
| 2026-05-09 21:49 | -45.77609 | -67.39589 | 854 ft | 151 kts | 259° |
| 2026-05-09 21:49 | -45.77806 | -67.41060 | 674 ft | 150 kts | 259° |
| 2026-05-09 21:49 | -45.77989 | -67.42522 | 465 ft | 152 kts | 259° |
| 2026-05-09 21:49 | -45.78188 | -67.44120 | 386 ft | 170 kts | 264° |
| 2026-05-09 21:50 | -45.78362 | -67.45822 | 570 ft | 176 kts | 265° |
| 2026-05-09 21:50 | -45.78539 | -67.47493 | 1096 ft | 167 kts | 261° |
| 2026-05-09 21:50 | -45.78933 | -67.50863 | 1595 ft | 185 kts | 261° |
| 2026-05-09 21:51 | -45.79356 | -67.52694 | 1605 ft | 206 kts | 239° |
| 2026-05-09 21:51 | -45.80440 | -67.54182 | 1610 ft | 230 kts | 208° |
| 2026-05-09 21:51 | -45.82052 | -67.54748 | 1688 ft | 249 kts | 176° |
| 2026-05-09 21:51 | -45.83620 | -67.54059 | 2517 ft | 232 kts | 149° |
| 2026-05-09 21:52 | -45.84756 | -67.52468 | 2875 ft | 225 kts | 115° |
| 2026-05-09 21:52 | -45.85060 | -67.50354 | 3158 ft | 218 kts | 85° |
| 2026-05-09 21:52 | -45.84784 | -67.48210 | 3465 ft | 221 kts | 68° |
| 2026-05-09 21:52 | -45.84075 | -67.46243 | 3661 ft | 227 kts | 52° |
| 2026-05-09 21:53 | -45.83398 | -67.44214 | 3655 ft | 229 kts | 77° |
| 2026-05-09 21:53 | -45.83196 | -67.41960 | 3640 ft | 227 kts | 84° |
| 2026-05-09 21:53 | -45.83081 | -67.39712 | 3417 ft | 226 kts | 85° |
| 2026-05-09 21:54 | -45.82700 | -67.35290 | 2920 ft | 223 kts | 75° |
| 2026-05-09 21:54 | -45.82339 | -67.33148 | 2674 ft | 221 kts | 75° |
| 2026-05-09 21:54 | -45.81955 | -67.31029 | 2423 ft | 219 kts | 75° |
| 2026-05-09 21:54 | -45.81569 | -67.28938 | 2183 ft | 216 kts | 75° |
| 2026-05-09 21:55 | -45.81186 | -67.26960 | 1943 ft | 214 kts | 68° |
| 2026-05-09 21:55 | -45.80295 | -67.25318 | 1693 ft | 211 kts | 30° |
| 2026-05-09 21:55 | -45.78930 | -67.24776 | 1532 ft | 202 kts | 355° |
| 2026-05-09 21:55 | -45.77837 | -67.25152 | 1499 ft | 191 kts | 331° |
| 2026-05-09 21:56 | -45.76826 | -67.26306 | 1502 ft | 186 kts | 305° |
| 2026-05-09 21:56 | -45.76276 | -67.27951 | 1507 ft | 187 kts | 279° |
| 2026-05-09 21:56 | -45.76300 | -67.29800 | 1509 ft | 188 kts | 257° |
| 2026-05-09 21:56 | -45.76558 | -67.31644 | 1510 ft | 190 kts | 257° |
| 2026-05-09 21:57 | -45.76800 | -67.33498 | 1509 ft | 190 kts | 257° |
| 2026-05-09 21:57 | -45.77050 | -67.35354 | 1409 ft | 188 kts | 257° |
| 2026-05-09 21:57 | -45.77291 | -67.37157 | 1192 ft | 180 kts | 258° |
| 2026-05-09 21:57 | -45.77513 | -67.38840 | 979 ft | 165 kts | 258° |
| 2026-05-09 21:58 | -45.77720 | -67.40409 | 743 ft | 156 kts | 259° |
| 2026-05-09 21:58 | -45.77912 | -67.41911 | 556 ft | 152 kts | 261° |
| 2026-05-09 21:58 | -45.78100 | -67.43374 | 387 ft | 148 kts | 263° |
| 2026-05-09 21:58 | -45.78290 | -67.44838 | 237 ft | 150 kts | 259° |
| 2026-05-09 21:59 | -45.78477 | -67.46177 | 200 ft | 104 kts | 259° |
| 2026-05-09 21:59 | -45.78542 | -67.46695 | 198 ft | 21 kts | 260° |
| 2026-05-09 21:59 | -45.78645 | -67.46806 | 206 ft | 21 kts | 182° |
| 2026-05-09 21:59 | -45.78689 | -67.46806 | 195 ft | 0 kts | 179° |